This is the latest recevied weather packets stored in our database for station/object EA5SW-14. If no packets are shown the sender has not sent any weather packets the latest 10 day(s).
| Time | Temp. | Humidity | Pressure | Rain* | Wind** | Luminosity | Snow |
|---|---|---|---|---|---|---|---|
| 1777563289 | 25.56° C | 42% | 1009.8 hPa | 0 mm | - | - | - |
| 1777557911 | 25° C | 45% | 1010.4 hPa | 0 mm | - | - | - |
| 1777551304 | 22.78° C | 51% | 1011.1 hPa | 0 mm | - | - | - |
| 1777550075 | 22.22° C | 53% | 1011.2 hPa | 0 mm | - | - | - |
| 1777539873 | 17.78° C | 72% | 1011.8 hPa | 0 mm | - | - | - |
| 1777534496 | 16.11° C | 79% | 1011.1 hPa | 0 mm | - | - | - |
| 1777533891 | 16.11° C | 77% | 1011 hPa | 0 mm | - | - | - |
| 1777533307 | 16.11° C | 78% | 1010.9 hPa | 0 mm | - | - | - |
| 1777531494 | 13.33° C | 88% | 1010.7 hPa | 0 mm | - | - | - |
| 1777529058 | 11.11° C | 91% | 1010.6 hPa | 0 mm | - | - | - |
| 1777528514 | 11.11° C | 91% | 1010.5 hPa | 0 mm | - | - | - |
| 1777525513 | 11.11° C | 91% | 1010 hPa | 0 mm | - | - | - |
| 1777524285 | 11.11° C | 91% | 1009.8 hPa | 0 mm | - | - | - |
| 1777523701 | 11.11° C | 92% | 1009.6 hPa | 0 mm | - | - | - |
| 1777521868 | 11.11° C | 92% | 1009.5 hPa | 0 mm | - | - | - |
| 1777521264 | 11.11° C | 92% | 1009.5 hPa | 0 mm | - | - | - |
| 1777518303 | 11.67° C | 91% | 1009.6 hPa | 0 mm | - | - | - |
| 1777517095 | 12.22° C | 90% | 1009.5 hPa | 0 mm | - | - | - |
| 1777515886 | 11.67° C | 90% | 1009.7 hPa | 0 mm | - | - | - |
| 1777509904 | 12.22° C | 87% | 1009.7 hPa | 0 mm | - | - | - |
| 1777502733 | 13.89° C | 82% | 1009.3 hPa | 0 mm | - | - | - |
| 1777499712 | 13.89° C | 82% | 1008.6 hPa | 0 mm | - | - | - |
| 1777497295 | 15° C | 81% | 1009.1 hPa | 0 mm | - | - | - |
| 1777493105 | 15.56° C | 83% | 1008 hPa | 0 mm | - | - | - |
| 1777492501 | 15.56° C | 85% | 1008.1 hPa | 0 mm | - | - | - |
* Rain latest hour (hover to see other rain measurements)
** Current wind speed in m/s (hover to see current wind gust speed)